KRDG/RDG METAR and TAF weather

Enter ICAO airport designator
Station Type Date Time Source
KRDG METAR 2019/10/23 08:14 UTC NOAA

KRDG 230814Z AUTO 27005KT 10SM SCT003 11/11 A2984 RMK AO2 T01110111


Station Type Date Time Source
KRDG Decoded METAR 2019/10/23 08:14 UTC NOAA

READING REGIONAL AIRPORT, PA, United States (KRDG) 40-22N 075-58W 109M
Oct 23, 2019 - 04:14 AM EDT / 2019.10.23 0814 UTC
Wind: from the W (270 degrees) at 6 MPH (5 KT):0
Visibility: 10 mile(s):0
Sky conditions: partly cloudy
Temperature: 52.0 F (11.1 C)
Dew Point: 52.0 F (11.1 C)
Relative Humidity: 100%
Pressure (altimeter): 29.84 in. Hg (1010 hPa)
ob: KRDG 230814Z AUTO 27005KT 10SM SCT003 11/11 A2984 RMK AO2 T01110111
cycle: 8

Station Type Date Time Source
KRDG TAF 2019/10/23 07:18 UTC NOAA

TAF
AMD KRDG 230717Z 2307/2406 28003KT 6SM BR SCT002
TEMPO 2307/2309 3SM BR BKN002
FM230900 30005KT P6SM SKC
FM231400 29012G20KT P6SM FEW045
FM232200 27008KT P6SM SKC
FM240000 VRB03KT P6SM SKC

Example: see airport list